createdAt,value
2018-08-03T00:01:46.020Z,100912.14
2018-08-03T00:04:13.877Z,100916.89
2018-08-03T00:06:41.749Z,100920.12
2018-08-03T00:09:10.019Z,100921.47
2018-08-03T00:11:38.417Z,100914.88
2018-08-03T00:14:06.272Z,100913.42
2018-08-03T00:16:34.123Z,100913.83
2018-08-03T00:19:02.013Z,100911.87
2018-08-03T00:21:29.943Z,100909.88
2018-08-03T00:23:58.051Z,100909.16
2018-08-03T00:26:25.846Z,100911.13
2018-08-03T00:28:53.696Z,100910.84
2018-08-03T00:31:21.820Z,100908.34
2018-08-03T00:33:49.623Z,100913.69
2018-08-03T00:36:17.648Z,100905.83
2018-08-03T00:38:45.720Z,100913.72
2018-08-03T00:41:13.580Z,100912.57
2018-08-03T00:43:41.479Z,100910.47
2018-08-03T00:46:09.300Z,100911.30
2018-08-03T00:48:37.127Z,100907.05
2018-08-03T00:51:05.057Z,100916.39
2018-08-03T00:53:32.839Z,100915.19
2018-08-03T00:56:00.662Z,100915.61
2018-08-03T00:58:28.435Z,100914.54
2018-08-03T01:00:56.159Z,100909.39
2018-08-03T01:03:24.026Z,100913.46
2018-08-03T01:05:52.066Z,100918.23
2018-08-03T01:08:19.782Z,100917.27
2018-08-03T01:10:47.661Z,100912.75
2018-08-03T01:13:15.499Z,100908.56
2018-08-03T01:15:43.301Z,100911.30
2018-08-03T01:18:11.115Z,100906.98
2018-08-03T01:20:38.927Z,100910.55
2018-08-03T01:23:06.696Z,100912.20
2018-08-03T01:25:34.471Z,100911.45
2018-08-03T01:28:02.263Z,100906.77
2018-08-03T01:30:30.155Z,100903.40
2018-08-03T01:32:57.920Z,100907.24
2018-08-03T01:35:25.824Z,100903.70
2018-08-03T01:37:53.654Z,100896.19
2018-08-03T01:40:21.524Z,100896.90
2018-08-03T01:42:49.343Z,100903.23
2018-08-03T01:45:17.107Z,100903.88
2018-08-03T01:47:44.911Z,100900.88
2018-08-03T01:50:12.665Z,100905.31
2018-08-03T01:52:40.481Z,100905.84
2018-08-03T01:55:08.226Z,100903.17
2018-08-03T01:57:36.064Z,100912.73
2018-08-03T02:00:04.266Z,100911.47
2018-08-03T02:02:32.143Z,100913.16
2018-08-03T02:05:00.628Z,100916.77
2018-08-03T02:07:28.463Z,100913.30
2018-08-03T02:09:56.344Z,100919.88
2018-08-03T02:12:24.195Z,100919.31
2018-08-03T02:14:52.076Z,100917.16
2018-08-03T02:17:19.931Z,100917.52
2018-08-03T02:19:47.787Z,100917.12
2018-08-03T02:22:15.714Z,100927.31
2018-08-03T02:24:43.565Z,100926.98
2018-08-03T02:27:11.428Z,100928.13
2018-08-03T02:29:39.270Z,100935.17
2018-08-03T02:32:07.155Z,100930.20
2018-08-03T02:34:34.957Z,100926.65
2018-08-03T02:37:02.747Z,100929.22
2018-08-03T02:39:30.547Z,100928.55
2018-08-03T02:41:58.348Z,100920.31
2018-08-03T02:44:26.112Z,100923.42
2018-08-03T02:46:53.939Z,100924.34
2018-08-03T02:49:21.763Z,100923.58
2018-08-03T02:51:49.526Z,100922.91
2018-08-03T02:54:17.333Z,100924.72
2018-08-03T02:56:45.111Z,100926.11
2018-08-03T02:59:12.928Z,100930.08
2018-08-03T03:01:40.768Z,100925.58
2018-08-03T03:04:08.860Z,100923.36
2018-08-03T03:06:36.680Z,100932.70
2018-08-03T03:09:08.419Z,100931.38
2018-08-03T03:11:36.390Z,100929.66
2018-08-03T03:14:04.390Z,100927.91
2018-08-03T03:16:32.211Z,100927.91
2018-08-03T03:19:00.275Z,100928.60
2018-08-03T03:21:28.111Z,100929.89
2018-08-03T03:23:55.907Z,100935.78
2018-08-03T03:26:23.755Z,100934.79
2018-08-03T03:28:51.651Z,100935.19
2018-08-03T03:31:19.405Z,100932.66
2018-08-03T03:33:47.249Z,100930.77
2018-08-03T03:36:15.033Z,100925.59
2018-08-03T03:38:42.827Z,100934.67
2018-08-03T03:41:10.725Z,100934.53
2018-08-03T03:43:38.504Z,100930.32
2018-08-03T03:46:06.927Z,100929.58
2018-08-03T03:48:34.759Z,100936.11
2018-08-03T03:51:02.630Z,100935.77
2018-08-03T03:53:30.467Z,100936.39
2018-08-03T03:55:58.294Z,100937.55
2018-08-03T03:58:26.107Z,100942.64
2018-08-03T04:00:53.958Z,100943.38
2018-08-03T04:03:21.817Z,100937.69
2018-08-03T04:05:49.725Z,100942.69
2018-08-03T04:08:17.498Z,100949.52
2018-08-03T04:10:45.367Z,100943.07
2018-08-03T04:13:13.151Z,100940.91
2018-08-03T04:15:41.003Z,100943.52
2018-08-03T04:20:38.135Z,100948.52
2018-08-03T04:23:06.482Z,100948.77
2018-08-03T04:25:34.285Z,100948.83
2018-08-03T04:28:02.044Z,100950.72
2018-08-03T04:30:29.834Z,100947.44
2018-08-03T04:32:57.676Z,100947.05
2018-08-03T04:35:25.553Z,100952.13
2018-08-03T04:37:53.360Z,100956.31
2018-08-03T04:40:21.202Z,100959.25
2018-08-03T04:42:49.018Z,100963.14
2018-08-03T04:45:16.840Z,100964.20
2018-08-03T04:47:44.632Z,100965.03
2018-08-03T04:50:12.420Z,100963.80
2018-08-03T04:52:40.235Z,100964.91
2018-08-03T04:55:08.532Z,100960.61
2018-08-03T04:57:36.339Z,100964.45
2018-08-03T05:00:04.704Z,100954.88
2018-08-03T05:02:32.531Z,100963.18
2018-08-03T05:05:00.341Z,100967.28
2018-08-03T05:07:28.109Z,100961.88
2018-08-03T05:09:55.858Z,100960.91
2018-08-03T05:12:23.683Z,100965.25
2018-08-03T05:14:51.496Z,100968.14
2018-08-03T05:17:19.335Z,100966.03
2018-08-03T05:19:47.171Z,100961.09
2018-08-03T05:22:15.047Z,100961.78
2018-08-03T05:24:42.845Z,100966.60
2018-08-03T05:27:10.608Z,100974.67
2018-08-03T05:29:38.372Z,100974.14
2018-08-03T05:32:06.306Z,100966.19
2018-08-03T05:34:34.146Z,100971.44
2018-08-03T05:37:02.311Z,100965.63
2018-08-03T05:39:30.163Z,100962.61
2018-08-03T05:41:58.019Z,100961.70
2018-08-03T05:44:25.873Z,100963.05
2018-08-03T05:46:53.620Z,100966.38
2018-08-03T05:49:21.511Z,100961.02
2018-08-03T05:51:49.371Z,100966.30
2018-08-03T05:54:17.169Z,100966.50
2018-08-03T05:56:45.052Z,100965.69
2018-08-03T05:59:13.043Z,100973.05
2018-08-03T06:01:40.961Z,100970.08
2018-08-03T06:04:12.475Z,100973.70
2018-08-03T06:06:40.329Z,100977.63
2018-08-03T06:09:09.488Z,100976.58
2018-08-03T06:11:37.423Z,100982.02
2018-08-03T06:14:06.062Z,100983.55
2018-08-03T06:16:33.968Z,100980.25
2018-08-03T06:19:02.116Z,100984.41
2018-08-03T06:21:30.795Z,100980.64
2018-08-03T06:23:58.826Z,100975.89
2018-08-03T06:26:26.671Z,100982.58
2018-08-03T06:28:54.672Z,100980.84
2018-08-03T06:31:22.522Z,100973.84
2018-08-03T06:33:50.519Z,100977.93
2018-08-03T06:36:18.392Z,100975.37
2018-08-03T06:38:46.349Z,100979.70
2018-08-03T06:41:14.236Z,100982.75
2018-08-03T06:43:42.168Z,100981.08
2018-08-03T06:46:10.722Z,100982.56
2018-08-03T06:48:38.511Z,100978.98
2018-08-03T06:51:06.647Z,100984.48
2018-08-03T06:53:34.692Z,100980.82
2018-08-03T06:56:02.695Z,100977.35
2018-08-03T06:58:30.588Z,100983.36
2018-08-03T07:00:58.856Z,100977.23
2018-08-03T07:03:26.764Z,100976.56
2018-08-03T07:05:54.715Z,100972.26
2018-08-03T07:08:22.699Z,100973.03
2018-08-03T07:10:50.526Z,100979.00
2018-08-03T07:13:18.332Z,100974.43
2018-08-03T07:15:46.132Z,100981.38
2018-08-03T07:18:14.160Z,100979.73
2018-08-03T07:20:42.088Z,100971.61
2018-08-03T07:23:09.833Z,100980.61
2018-08-03T07:25:37.670Z,100975.92
2018-08-03T07:28:05.630Z,100978.17
2018-08-03T07:30:33.455Z,100979.45
2018-08-03T07:33:01.356Z,100970.34
2018-08-03T07:35:29.109Z,100970.20
2018-08-03T07:37:57.007Z,100964.81
2018-08-03T07:40:24.775Z,100973.50
2018-08-03T07:42:52.573Z,100974.36
2018-08-03T07:45:20.391Z,100975.77
2018-08-03T07:47:48.244Z,100969.91
2018-08-03T07:50:16.032Z,100963.68
2018-08-03T07:52:43.880Z,100961.22
2018-08-03T07:55:11.761Z,100953.46
2018-08-03T07:57:39.544Z,100953.23
2018-08-03T08:00:07.455Z,100956.41
2018-08-03T08:02:35.255Z,100955.09
2018-08-03T08:05:03.131Z,100952.73
2018-08-03T08:07:30.919Z,100945.80
2018-08-03T08:09:58.816Z,100940.17
2018-08-03T08:12:26.627Z,100941.91
2018-08-03T08:14:54.472Z,100930.16
2018-08-03T08:17:22.320Z,100930.14
2018-08-03T08:19:50.036Z,100935.89
2018-08-03T08:22:17.864Z,100937.18
2018-08-03T08:24:45.662Z,100933.22
2018-08-03T08:27:13.551Z,100936.16
2018-08-03T08:29:41.381Z,100933.12
2018-08-03T08:32:09.229Z,100928.58
2018-08-03T08:34:37.071Z,100927.59
2018-08-03T08:37:05.274Z,100931.15
2018-08-03T08:39:33.055Z,100919.61
2018-08-03T08:42:00.916Z,100927.42
2018-08-03T08:44:28.851Z,100919.05
2018-08-03T08:46:56.629Z,100917.26
2018-08-03T08:49:24.404Z,100918.31
2018-08-03T08:51:52.235Z,100920.30
2018-08-03T08:54:20.050Z,100912.75
2018-08-03T08:56:47.840Z,100915.70
2018-08-03T08:59:15.674Z,100916.81
2018-08-03T09:01:43.535Z,100915.66
2018-08-03T09:04:11.347Z,100918.49
2018-08-03T09:06:39.192Z,100916.86
2018-08-03T09:09:09.245Z,100916.42
2018-08-03T09:11:37.600Z,100910.45
2018-08-03T09:14:05.599Z,100907.30
2018-08-03T09:16:33.439Z,100908.45
2018-08-03T09:19:01.284Z,100904.59
2018-08-03T09:21:29.125Z,100906.91
2018-08-03T09:23:56.990Z,100901.41
2018-08-03T09:26:24.813Z,100899.00
2018-08-03T09:28:52.671Z,100897.37
2018-08-03T09:31:20.424Z,100901.55
2018-08-03T09:33:48.342Z,100892.91
2018-08-03T09:36:16.184Z,100889.92
2018-08-03T09:38:44.013Z,100890.08
2018-08-03T09:41:11.866Z,100886.80
2018-08-03T09:43:39.683Z,100885.10
2018-08-03T09:46:07.543Z,100886.16
2018-08-03T09:48:35.427Z,100881.00
2018-08-03T09:51:03.245Z,100878.64
2018-08-03T09:53:31.055Z,100878.41
2018-08-03T09:55:58.824Z,100874.47
2018-08-03T09:58:26.695Z,100864.69
2018-08-03T10:00:55.975Z,100864.39
2018-08-03T10:03:24.427Z,100858.66
2018-08-03T10:05:52.244Z,100857.63
2018-08-03T10:08:20.195Z,100853.34
2018-08-03T10:10:48.208Z,100843.02
2018-08-03T10:13:16.475Z,100839.61
2018-08-03T10:15:44.307Z,100844.86
2018-08-03T10:18:12.155Z,100842.86
2018-08-03T10:20:40.073Z,100838.70
2018-08-03T10:23:08.163Z,100838.97
2018-08-03T10:25:35.890Z,100834.13
2018-08-03T10:28:03.751Z,100840.37
2018-08-03T10:30:31.551Z,100829.34
2018-08-03T10:32:59.287Z,100828.38
2018-08-03T10:35:27.191Z,100822.54
2018-08-03T10:37:54.976Z,100825.23
2018-08-03T10:40:22.927Z,100821.44
2018-08-03T10:42:50.836Z,100827.75
2018-08-03T10:45:18.599Z,100819.38
2018-08-03T10:47:46.378Z,100814.76
2018-08-03T10:50:14.927Z,100809.42
2018-08-03T10:52:42.956Z,100803.23
2018-08-03T10:55:10.840Z,100802.48
2018-08-03T10:57:38.699Z,100806.84
2018-08-03T11:00:07.859Z,100799.82
2018-08-03T11:02:35.699Z,100789.80
2018-08-03T11:05:03.739Z,100787.10
2018-08-03T11:07:31.491Z,100787.09
2018-08-03T11:09:59.343Z,100776.94
2018-08-03T11:12:27.143Z,100785.64
2018-08-03T11:14:54.962Z,100773.22
2018-08-03T11:17:22.832Z,100774.80
2018-08-03T11:19:50.620Z,100783.48
2018-08-03T11:22:18.471Z,100779.67
2018-08-03T11:24:46.367Z,100774.70
2018-08-03T11:27:14.173Z,100770.27
2018-08-03T11:29:42.023Z,100765.24
2018-08-03T11:32:09.887Z,100757.19
2018-08-03T11:34:37.707Z,100763.30
2018-08-03T11:37:05.641Z,100767.05
2018-08-03T11:39:33.453Z,100763.38
2018-08-03T11:42:01.623Z,100760.06
2018-08-03T11:44:29.400Z,100757.12
2018-08-03T11:46:57.219Z,100741.16
2018-08-03T11:49:25.039Z,100747.81
2018-08-03T11:51:52.828Z,100741.13
2018-08-03T11:54:20.670Z,100738.09
2018-08-03T11:56:48.471Z,100738.43
2018-08-03T11:59:16.269Z,100733.45
2018-08-03T12:01:44.098Z,100728.25
2018-08-03T12:04:11.983Z,100727.13
2018-08-03T12:06:39.806Z,100714.11
2018-08-03T12:09:07.958Z,100721.17
2018-08-03T12:11:36.011Z,100713.16
2018-08-03T12:14:03.883Z,100706.39
2018-08-03T12:16:31.756Z,100706.98
2018-08-03T12:18:59.751Z,100705.89
2018-08-03T12:21:27.638Z,100705.25
2018-08-03T12:23:55.570Z,100694.48
2018-08-03T12:26:23.339Z,100685.14
2018-08-03T12:28:51.119Z,100682.92
2018-08-03T12:31:18.981Z,100682.59
2018-08-03T12:33:46.686Z,100683.86
2018-08-03T12:36:14.655Z,100684.17
2018-08-03T12:38:42.495Z,100677.27
2018-08-03T12:41:10.251Z,100676.62
2018-08-03T12:43:38.193Z,100674.22
2018-08-03T12:46:06.249Z,100674.05
2018-08-03T12:48:34.012Z,100673.69
2018-08-03T12:51:01.955Z,100676.44
2018-08-03T12:53:29.727Z,100671.20
2018-08-03T12:55:57.679Z,100668.42
2018-08-03T12:58:25.719Z,100667.30
2018-08-03T13:00:53.535Z,100672.54
2018-08-03T13:03:21.355Z,100670.44
2018-08-03T13:05:49.156Z,100664.73
2018-08-03T13:08:17.043Z,100657.32
2018-08-03T13:10:45.095Z,100652.59
2018-08-03T13:13:12.868Z,100652.73
2018-08-03T13:15:40.715Z,100650.95
2018-08-03T13:18:08.903Z,100651.84
2018-08-03T13:20:36.969Z,100647.33
2018-08-03T13:23:05.007Z,100643.00
2018-08-03T13:25:32.814Z,100647.42
2018-08-03T13:28:00.958Z,100641.20
2018-08-03T13:30:28.754Z,100643.78
2018-08-03T13:32:56.523Z,100640.13
2018-08-03T13:35:24.452Z,100633.72
2018-08-03T13:37:52.330Z,100629.02
2018-08-03T13:40:20.192Z,100627.59
2018-08-03T13:42:48.273Z,100622.96
2018-08-03T13:45:16.132Z,100619.30
2018-08-03T13:47:44.018Z,100622.80
2018-08-03T13:50:11.909Z,100618.19
2018-08-03T13:52:39.788Z,100609.81
2018-08-03T13:55:07.622Z,100606.48
2018-08-03T13:57:35.551Z,100606.55
2018-08-03T14:00:05.373Z,100606.52
2018-08-03T14:02:33.938Z,100596.36
2018-08-03T14:05:01.734Z,100596.09
2018-08-03T14:07:29.795Z,100586.98
2018-08-03T14:09:57.765Z,100597.92
2018-08-03T14:12:25.600Z,100587.27
2018-08-03T14:14:54.011Z,100586.84
2018-08-03T14:17:21.853Z,100589.90
2018-08-03T14:19:49.738Z,100582.86
2018-08-03T14:22:17.580Z,100577.44
2018-08-03T14:24:45.371Z,100578.88
2018-08-03T14:27:13.211Z,100580.94
2018-08-03T14:29:40.957Z,100578.30
2018-08-03T14:32:08.971Z,100571.12
2018-08-03T14:34:36.759Z,100571.58
2018-08-03T14:37:04.705Z,100567.59
2018-08-03T14:39:32.579Z,100562.98
2018-08-03T14:42:00.427Z,100569.14
2018-08-03T14:44:28.304Z,100563.13
2018-08-03T14:46:56.036Z,100563.13
2018-08-03T14:49:23.874Z,100563.80
2018-08-03T14:51:51.754Z,100564.48
2018-08-03T14:54:19.651Z,100569.44
2018-08-03T14:56:47.454Z,100560.77
2018-08-03T14:59:15.223Z,100557.86
2018-08-03T15:01:43.087Z,100553.99
2018-08-03T15:04:11.573Z,100552.32
2018-08-03T15:06:39.463Z,100548.66
2018-08-03T15:09:09.615Z,100552.33
2018-08-03T15:11:37.488Z,100544.84
2018-08-03T15:14:05.360Z,100544.16
2018-08-03T15:16:33.107Z,100543.14
2018-08-03T15:19:00.952Z,100541.66
2018-08-03T15:21:28.824Z,100538.23
2018-08-03T15:23:56.711Z,100532.09
2018-08-03T15:26:24.516Z,100531.02
2018-08-03T15:28:52.458Z,100533.08
2018-08-03T15:31:20.324Z,100529.57
2018-08-03T15:33:48.114Z,100532.99
2018-08-03T15:36:16.019Z,100529.33
2018-08-03T15:38:43.902Z,100524.92
2018-08-03T15:41:11.669Z,100530.95
2018-08-03T15:43:39.468Z,100526.31
2018-08-03T15:46:07.276Z,100520.67
2018-08-03T15:48:35.044Z,100520.48
2018-08-03T15:51:02.916Z,100523.53
2018-08-03T15:53:30.811Z,100514.87
2018-08-03T15:55:58.659Z,100514.08
2018-08-03T15:58:26.679Z,100509.42
2018-08-03T16:00:54.505Z,100511.11
2018-08-03T16:03:22.295Z,100502.54
2018-08-03T16:05:50.200Z,100499.55
2018-08-03T16:08:18.040Z,100502.59
2018-08-03T16:10:46.087Z,100496.30
2018-08-03T16:13:14.003Z,100501.27
2018-08-03T16:15:41.815Z,100499.66
2018-08-03T16:18:09.594Z,100491.23
2018-08-03T16:20:37.521Z,100489.42
2018-08-03T16:23:05.335Z,100488.63
2018-08-03T16:25:33.108Z,100491.53
2018-08-03T16:28:00.963Z,100488.05
2018-08-03T16:30:28.913Z,100485.28
2018-08-03T16:32:56.708Z,100483.05
2018-08-03T16:35:24.543Z,100481.87
2018-08-03T16:37:52.299Z,100474.41
2018-08-03T16:40:20.211Z,100471.56
2018-08-03T16:42:48.022Z,100475.50
2018-08-03T16:45:15.811Z,100474.66
2018-08-03T16:47:43.700Z,100474.27
2018-08-03T16:50:11.595Z,100478.02
2018-08-03T16:52:39.422Z,100469.66
2018-08-03T16:55:07.259Z,100480.68
2018-08-03T16:57:35.059Z,100480.52
2018-08-03T17:00:03.475Z,100477.70
2018-08-03T17:02:31.247Z,100475.89
2018-08-03T17:04:59.031Z,100479.33
2018-08-03T17:07:26.786Z,100477.94
2018-08-03T17:09:54.671Z,100473.89
2018-08-03T17:12:22.384Z,100475.72
2018-08-03T17:14:50.243Z,100471.03
2018-08-03T17:17:18.465Z,100471.28
2018-08-03T17:19:46.314Z,100467.84
2018-08-03T17:22:14.344Z,100473.76
2018-08-03T17:24:42.243Z,100465.42
2018-08-03T17:27:10.644Z,100464.22
2018-08-03T17:29:38.616Z,100461.59
2018-08-03T17:32:06.954Z,100461.98
2018-08-03T17:37:07.872Z,100462.40
2018-08-03T17:39:35.667Z,100463.64
2018-08-03T17:42:03.531Z,100463.63
2018-08-03T17:44:31.460Z,100461.19
2018-08-03T17:46:59.183Z,100459.73
2018-08-03T17:49:27.094Z,100461.79
2018-08-03T17:51:54.977Z,100467.05
2018-08-03T17:54:22.757Z,100470.08
2018-08-03T17:56:50.615Z,100471.69
2018-08-03T17:59:18.459Z,100468.24
2018-08-03T18:01:46.211Z,100468.03
2018-08-03T18:04:14.073Z,100467.00
2018-08-03T18:06:41.900Z,100472.81
2018-08-03T18:09:09.727Z,100471.37
2018-08-03T18:11:37.638Z,100468.72
2018-08-03T18:14:05.495Z,100478.20
2018-08-03T18:16:33.567Z,100478.31
2018-08-03T18:19:01.540Z,100472.19
2018-08-03T18:21:29.352Z,100468.10
2018-08-03T18:23:57.204Z,100470.70
2018-08-03T18:26:25.091Z,100468.59
2018-08-03T18:28:53.011Z,100474.67
2018-08-03T18:31:20.876Z,100472.60
2018-08-03T18:33:48.722Z,100471.51
2018-08-03T18:36:16.512Z,100470.98
2018-08-03T18:38:44.467Z,100471.73
2018-08-03T18:41:12.259Z,100467.43
2018-08-03T18:43:40.131Z,100470.45
2018-08-03T18:46:07.949Z,100465.84
2018-08-03T18:48:35.835Z,100467.36
2018-08-03T18:51:03.774Z,100467.02
2018-08-03T18:53:31.709Z,100469.94
2018-08-03T18:55:59.510Z,100472.80
2018-08-03T18:58:27.351Z,100475.08
2018-08-03T19:00:55.524Z,100478.52
2018-08-03T19:03:23.418Z,100475.91
2018-08-03T19:05:51.239Z,100483.53
2018-08-03T19:08:19.227Z,100479.83
2018-08-03T19:10:47.567Z,100489.61
2018-08-03T19:13:15.661Z,100484.89
2018-08-03T19:15:43.537Z,100488.33
2018-08-03T19:18:11.471Z,100493.66
2018-08-03T19:20:39.513Z,100495.35
2018-08-03T19:23:07.459Z,100498.14
2018-08-03T19:25:35.298Z,100492.89
2018-08-03T19:28:03.075Z,100497.40
2018-08-03T19:30:31.316Z,100500.44
2018-08-03T19:32:59.379Z,100509.31
2018-08-03T19:35:27.435Z,100507.64
2018-08-03T19:37:55.230Z,100512.81
2018-08-03T19:40:23.112Z,100516.86
2018-08-03T19:42:51.907Z,100520.39
2018-08-03T19:45:19.730Z,100521.80
2018-08-03T19:47:48.131Z,100522.47
2018-08-03T19:50:15.867Z,100525.16
2018-08-03T19:52:44.009Z,100520.09
2018-08-03T19:55:11.974Z,100521.72
2018-08-03T19:57:39.792Z,100520.58
2018-08-03T20:00:10.978Z,100521.02
2018-08-03T20:02:39.231Z,100526.39
2018-08-03T20:05:12.160Z,100527.42
2018-08-03T20:07:40.028Z,100527.10
2018-08-03T20:10:08.313Z,100528.44
2018-08-03T20:12:36.175Z,100527.27
2018-08-03T20:15:04.934Z,100524.98
2018-08-03T20:17:32.907Z,100525.52
2018-08-03T20:20:00.745Z,100529.84
2018-08-03T20:22:28.610Z,100526.08
2018-08-03T20:24:56.477Z,100533.56
2018-08-03T20:27:24.324Z,100527.75
2018-08-03T20:29:52.147Z,100530.38
2018-08-03T20:32:20.010Z,100531.83
2018-08-03T20:34:47.857Z,100529.38
2018-08-03T20:37:15.791Z,100532.07
2018-08-03T20:39:43.679Z,100530.86
2018-08-03T20:42:11.466Z,100536.27
2018-08-03T20:44:39.325Z,100535.12
2018-08-03T20:47:07.070Z,100542.53
2018-08-03T20:49:34.926Z,100535.70
2018-08-03T20:52:02.882Z,100533.02
2018-08-03T20:54:30.679Z,100528.93
2018-08-03T20:56:58.799Z,100541.70
2018-08-03T20:59:26.628Z,100537.86
2018-08-03T21:01:54.460Z,100542.53
2018-08-03T21:04:22.329Z,100544.09
2018-08-03T21:06:50.175Z,100542.69
2018-08-03T21:09:17.968Z,100541.78
2018-08-03T21:11:45.800Z,100545.46
2018-08-03T21:14:13.585Z,100541.25
2018-08-03T21:16:41.380Z,100549.20
2018-08-03T21:19:09.250Z,100552.37
2018-08-03T21:21:37.047Z,100549.56
2018-08-03T21:24:05.550Z,100551.45
2018-08-03T21:26:33.672Z,100560.81
2018-08-03T21:29:01.544Z,100556.92
2018-08-03T21:31:29.380Z,100557.41
2018-08-03T21:33:57.472Z,100552.61
2018-08-03T21:36:25.502Z,100558.23
2018-08-03T21:38:53.294Z,100555.30
2018-08-03T21:41:21.302Z,100553.41
2018-08-03T21:43:49.090Z,100556.11
2018-08-03T21:46:16.921Z,100555.16
2018-08-03T21:48:44.731Z,100557.58
2018-08-03T21:51:12.535Z,100552.77
2018-08-03T21:53:40.350Z,100552.88
2018-08-03T21:56:08.143Z,100559.73
2018-08-03T21:58:35.943Z,100566.75
2018-08-03T22:01:03.810Z,100565.35
2018-08-03T22:03:31.713Z,100566.05
2018-08-03T22:05:59.571Z,100560.75
2018-08-03T22:08:27.526Z,100562.47
2018-08-03T22:10:55.363Z,100565.61
2018-08-03T22:13:23.199Z,100566.66
2018-08-03T22:15:51.007Z,100564.58
2018-08-03T22:18:18.931Z,100559.62
2018-08-03T22:20:46.752Z,100561.16
2018-08-03T22:23:14.555Z,100560.55
2018-08-03T22:25:42.503Z,100567.97
2018-08-03T22:28:10.355Z,100572.27
2018-08-03T22:30:38.179Z,100564.66
2018-08-03T22:33:06.050Z,100568.34
2018-08-03T22:35:33.867Z,100556.49
2018-08-03T22:38:01.701Z,100559.06
2018-08-03T22:40:29.511Z,100559.11
2018-08-03T22:42:57.384Z,100564.12
2018-08-03T22:45:25.188Z,100554.74
2018-08-03T22:47:53.934Z,100561.05
2018-08-03T22:50:21.838Z,100553.66
2018-08-03T22:52:49.756Z,100555.72
2018-08-03T22:55:17.522Z,100557.00
2018-08-03T22:57:45.311Z,100550.14
2018-08-03T23:00:13.167Z,100558.25
2018-08-03T23:02:40.978Z,100553.05
2018-08-03T23:05:08.894Z,100557.11
2018-08-03T23:07:36.697Z,100551.77
2018-08-03T23:10:05.474Z,100556.40
2018-08-03T23:12:33.322Z,100546.75
2018-08-03T23:15:01.056Z,100543.70
2018-08-03T23:17:28.845Z,100548.73
2018-08-03T23:19:56.759Z,100543.55
2018-08-03T23:22:24.588Z,100549.50
2018-08-03T23:24:52.429Z,100546.17
2018-08-03T23:27:20.179Z,100550.54
2018-08-03T23:29:48.035Z,100545.41
2018-08-03T23:32:15.786Z,100545.25
2018-08-03T23:34:43.599Z,100550.38
2018-08-03T23:37:11.374Z,100545.94
2018-08-03T23:39:39.188Z,100545.70
2018-08-03T23:42:06.970Z,100549.93
2018-08-03T23:44:34.736Z,100542.88
2018-08-03T23:47:02.818Z,100540.29
2018-08-03T23:49:30.598Z,100547.71
2018-08-03T23:51:58.467Z,100542.03
2018-08-03T23:54:26.293Z,100538.37
2018-08-03T23:56:54.155Z,100534.70
2018-08-03T23:59:21.989Z,100536.27
